Time;durP1;ratioP1;P1;durP2;ratioP2;P2;SDS_P1;SDS_P2;PMS_P1;PMS_P2;Temp;Humidity;BMP_temperature;BMP_pressure;BME280_temperature;BME280_humidity;BME280_pressure;Samples;Min_cycle;Max_cycle;Signal;HPM_P1;HPM_P2
2023/02/17 00:00:06;;;;;;;;;28.50;24.75;;;;;;;;117879;1190;25068;-57
2023/02/17 00:02:56;;;;;;;;;28.00;24.50;;;;;;;;117947;1190;25704;-57
2023/02/17 00:05:26;;;;;;;;;30.25;24.50;;;;;;;;118018;1186;25549;-57
2023/02/17 00:07:54;;;;;;;;;28.00;21.00;;;;;;;;117939;1190;24940;-57
2023/02/17 00:10:23;;;;;;;;;28.67;24.00;;;;;;;;118023;1190;24915;-57
2023/02/17 00:12:51;;;;;;;;;29.75;22.25;;;;;;;;118012;1190;25010;-57
2023/02/17 00:15:20;;;;;;;;;23.50;21.25;;;;;;;;118042;1177;25411;-57
2023/02/17 00:17:48;;;;;;;;;25.00;22.25;;;;;;;;117996;1177;25900;-57
2023/02/17 00:20:17;;;;;;;;;24.50;23.00;;;;;;;;117901;1188;25641;-57
2023/02/17 00:22:46;;;;;;;;;26.75;22.50;;;;;;;;118093;1177;25138;-57
2023/02/17 00:25:14;;;;;;;;;28.50;25.50;;;;;;;;118144;1177;25847;-59
2023/02/17 00:27:43;;;;;;;;;29.33;23.00;;;;;;;;118159;1178;25943;-57
2023/02/17 00:30:12;;;;;;;;;24.50;22.25;;;;;;;;117974;1183;25440;-57
2023/02/17 00:32:40;;;;;;;;;31.50;24.50;;;;;;;;118089;1177;24758;-57
2023/02/17 00:35:08;;;;;;;;;30.00;24.00;;;;;;;;118071;1176;25439;-57
2023/02/17 00:37:37;;;;;;;;;25.00;24.00;;;;;;;;117951;1190;24884;-57
2023/02/17 00:40:06;;;;;;;;;17.75;17.75;;;;;;;;117930;1184;25391;-57
2023/02/17 00:42:35;;;;;;;;;23.00;23.00;;;;;;;;117850;1187;24908;-57
2023/02/17 00:45:04;;;;;;;;;24.50;23.50;;;;;;;;117826;1188;25521;-57
2023/02/17 00:47:32;;;;;;;;;25.50;24.00;;;;;;;;118058;1190;25666;-56
2023/02/17 00:50:01;;;;;;;;;19.33;19.00;;;;;;;;117896;1179;25091;-56
2023/02/17 00:52:29;;;;;;;;;24.00;18.67;;;;;;;;118048;1177;25349;-56
2023/02/17 00:54:57;;;;;;;;;23.33;18.00;;;;;;;;118013;1177;25843;-56
2023/02/17 00:57:26;;;;;;;;;18.50;16.75;;;;;;;;117982;1190;24896;-57
2023/02/17 00:59:55;;;;;;;;;20.00;18.50;;;;;;;;118072;1177;24721;-57
2023/02/17 01:02:24;;;;;;;;;21.00;18.00;;;;;;;;117930;1178;25763;-57
2023/02/17 01:04:52;;;;;;;;;25.33;21.00;;;;;;;;117879;1181;24711;-56
2023/02/17 01:07:21;;;;;;;;;24.33;22.00;;;;;;;;118034;1183;25424;-57
2023/02/17 01:09:50;;;;;;;;;22.00;22.00;;;;;;;;118087;1181;25672;-57
2023/02/17 01:12:18;;;;;;;;;21.00;20.50;;;;;;;;118044;1178;25377;-56
2023/02/17 01:14:47;;;;;;;;;20.67;18.67;;;;;;;;117968;1178;25436;-56
2023/02/17 01:17:15;;;;;;;;;22.00;18.67;;;;;;;;118015;1177;25231;-56
2023/02/17 01:19:43;;;;;;;;;26.00;21.00;;;;;;;;117957;1178;24782;-56
2023/02/17 01:22:12;;;;;;;;;22.75;21.75;;;;;;;;117977;1180;24763;-56
2023/02/17 01:24:40;;;;;;;;;18.00;18.00;;;;;;;;118088;1176;24828;-56
2023/02/17 01:27:09;;;;;;;;;19.75;18.50;;;;;;;;118020;1176;24675;-56
2023/02/17 01:29:37;;;;;;;;;19.50;18.50;;;;;;;;117964;1178;25656;-56
2023/02/17 01:32:06;;;;;;;;;16.67;15.00;;;;;;;;118051;1186;24881;-57
2023/02/17 01:34:34;;;;;;;;;21.33;18.33;;;;;;;;117960;1188;25191;-56
2023/02/17 01:37:03;;;;;;;;;20.67;16.67;;;;;;;;117989;1177;25212;-57
2023/02/17 01:39:32;;;;;;;;;20.33;18.33;;;;;;;;117974;1179;24970;-57
2023/02/17 01:42:00;;;;;;;;;17.50;17.50;;;;;;;;118131;1177;25251;-57
2023/02/17 01:44:32;;;;;;;;;21.67;20.33;;;;;;;;117915;1180;24893;-57
2023/02/17 01:47:01;;;;;;;;;19.50;16.00;;;;;;;;117834;1190;25421;-57
2023/02/17 01:49:36;;;;;;;;;24.00;20.67;;;;;;;;118062;1188;25467;-57
2023/02/17 01:52:12;;;;;;;;;21.67;18.33;;;;;;;;117940;1190;25700;-57
2023/02/17 01:54:48;;;;;;;;;24.00;23.00;;;;;;;;117926;1190;24881;-57
2023/02/17 01:57:18;;;;;;;;;19.67;14.33;;;;;;;;117973;1184;24939;-56
2023/02/17 01:59:47;;;;;;;;;17.33;17.00;;;;;;;;117890;1190;24738;-57
2023/02/17 02:02:16;;;;;;;;;20.00;17.67;;;;;;;;117917;1177;25134;-57
2023/02/17 02:04:48;;;;;;;;;24.00;20.00;;;;;;;;117911;1190;25510;-57
2023/02/17 02:07:20;;;;;;;;;23.75;21.50;;;;;;;;118064;1190;24851;-57
2023/02/17 02:09:52;;;;;;;;;23.00;18.75;;;;;;;;118051;1178;24933;-57
2023/02/17 02:12:26;;;;;;;;;22.33;19.33;;;;;;;;118070;1177;25376;-58
2023/02/17 02:14:58;;;;;;;;;22.67;22.33;;;;;;;;117926;1177;24914;-57
2023/02/17 02:17:35;;;;;;;;;26.00;22.67;;;;;;;;117974;1183;25652;-57
2023/02/17 02:20:22;;;;;;;;;23.33;22.33;;;;;;;;118098;1179;25275;-57
2023/02/17 02:22:50;;;;;;;;;23.50;20.00;;;;;;;;118103;1178;25415;-57
2023/02/17 02:25:24;;;;;;;;;18.00;16.00;;;;;;;;117961;1177;24829;-57
2023/02/17 02:28:32;;;;;;;;;18.33;16.33;;;;;;;;118009;1177;25655;-57
2023/02/17 02:31:07;;;;;;;;;24.67;23.67;;;;;;;;117951;1178;25528;-57
2023/02/17 02:33:47;;;;;;;;;21.75;18.00;;;;;;;;117927;1190;25705;-57
2023/02/17 02:36:27;;;;;;;;;18.50;16.25;;;;;;;;117986;1177;25342;-57
2023/02/17 02:39:03;;;;;;;;;22.50;21.50;;;;;;;;117921;1179;25402;-57
2023/02/17 02:41:56;;;;;;;;;20.50;17.00;;;;;;;;117954;1190;25873;-57
2023/02/17 02:44:25;;;;;;;;;16.50;16.00;;;;;;;;118066;1184;25279;-57
2023/02/17 02:47:05;;;;;;;;;24.50;22.50;;;;;;;;118149;1177;25504;-57
2023/02/17 02:49:35;;;;;;;;;17.67;15.00;;;;;;;;117979;1177;24766;-58
2023/02/17 02:52:19;;;;;;;;;17.33;16.33;;;;;;;;117874;1181;24753;-57
2023/02/17 02:54:58;;;;;;;;;16.50;15.00;;;;;;;;117872;1190;24990;-57
2023/02/17 02:57:38;;;;;;;;;21.00;18.00;;;;;;;;117878;1190;25612;-57
2023/02/17 03:00:06;;;;;;;;;19.50;18.50;;;;;;;;117906;1190;25470;-57
2023/02/17 03:02:47;;;;;;;;;23.00;20.75;;;;;;;;118018;1177;25050;-57
2023/02/17 03:05:32;;;;;;;;;18.75;18.25;;;;;;;;117928;1182;24745;-57
2023/02/17 03:08:11;;;;;;;;;21.00;17.00;;;;;;;;117920;1177;24961;-57
2023/02/17 03:10:48;;;;;;;;;21.25;20.00;;;;;;;;117998;1182;25777;-57
2023/02/17 03:13:17;;;;;;;;;17.00;16.75;;;;;;;;117937;1178;25170;-57
2023/02/17 03:15:47;;;;;;;;;18.00;16.00;;;;;;;;118046;1177;25588;-57
2023/02/17 03:18:15;;;;;;;;;21.00;18.33;;;;;;;;117934;1186;25680;-58
2023/02/17 03:20:50;;;;;;;;;16.00;16.00;;;;;;;;118143;1184;25542;-57
2023/02/17 03:23:18;;;;;;;;;20.00;18.00;;;;;;;;118122;1177;25595;-57
2023/02/17 03:25:47;;;;;;;;;15.50;12.00;;;;;;;;118164;1176;24933;-57
2023/02/17 03:28:15;;;;;;;;;22.00;18.00;;;;;;;;117939;1178;25452;-57
2023/02/17 03:30:43;;;;;;;;;23.00;19.00;;;;;;;;117880;1183;24891;-57
2023/02/17 03:33:12;;;;;;;;;20.50;18.00;;;;;;;;117902;1180;25183;-57
2023/02/17 03:35:40;;;;;;;;;20.50;18.00;;;;;;;;117903;1190;25660;-58
2023/02/17 03:38:09;;;;;;;;;21.00;18.00;;;;;;;;117925;1180;24972;-57
2023/02/17 03:40:37;;;;;;;;;21.75;20.00;;;;;;;;117932;1190;24897;-57
2023/02/17 03:43:06;;;;;;;;;24.25;19.75;;;;;;;;118013;1177;24855;-57
2023/02/17 03:45:36;;;;;;;;;16.50;16.50;;;;;;;;118039;1177;25438;-57
2023/02/17 03:48:05;;;;;;;;;23.75;22.00;;;;;;;;117982;1177;24795;-58
2023/02/17 03:50:33;;;;;;;;;21.50;19.00;;;;;;;;117972;1177;25557;-57
2023/02/17 03:53:01;;;;;;;;;19.33;16.00;;;;;;;;118092;1183;24997;-57
2023/02/17 03:55:30;;;;;;;;;19.00;18.75;;;;;;;;117952;1178;25576;-57
2023/02/17 03:57:58;;;;;;;;;18.50;17.25;;;;;;;;117836;1191;25212;-58
2023/02/17 04:00:27;;;;;;;;;18.67;18.67;;;;;;;;117871;1177;25454;-59
2023/02/17 04:02:58;;;;;;;;;15.67;14.00;;;;;;;;118023;1176;25215;-60
2023/02/17 04:05:27;;;;;;;;;23.50;19.50;;;;;;;;117903;1177;25718;-61
2023/02/17 04:07:55;;;;;;;;;25.00;21.33;;;;;;;;118037;1178;25381;-59
2023/02/17 04:10:24;;;;;;;;;28.25;25.25;;;;;;;;118027;1177;24801;-63
2023/02/17 04:12:52;;;;;;;;;23.00;18.25;;;;;;;;118101;1185;25541;-58
2023/02/17 04:15:21;;;;;;;;;23.50;20.75;;;;;;;;118093;1190;24980;-58
2023/02/17 04:17:49;;;;;;;;;19.00;18.00;;;;;;;;118028;1179;24781;-58
2023/02/17 04:20:18;;;;;;;;;20.67;19.67;;;;;;;;117876;1179;25341;-57
2023/02/17 04:22:46;;;;;;;;;19.00;16.00;;;;;;;;117935;1190;25609;-57
2023/02/17 04:25:15;;;;;;;;;20.00;18.00;;;;;;;;117984;1177;25337;-58
2023/02/17 04:27:43;;;;;;;;;22.00;21.00;;;;;;;;118108;1190;24734;-57
2023/02/17 04:30:13;;;;;;;;;24.50;20.00;;;;;;;;117956;1176;24996;-57
2023/02/17 04:32:41;;;;;;;;;20.00;17.00;;;;;;;;118026;1176;25074;-57
2023/02/17 04:35:09;;;;;;;;;16.67;16.67;;;;;;;;118020;1176;25410;-57
2023/02/17 04:37:38;;;;;;;;;23.67;19.00;;;;;;;;117927;1177;25513;-57
2023/02/17 04:40:09;;;;;;;;;17.50;16.50;;;;;;;;117934;1190;25302;-57
2023/02/17 04:42:37;;;;;;;;;20.50;17.50;;;;;;;;117985;1184;25755;-58
2023/02/17 04:45:07;;;;;;;;;23.00;20.50;;;;;;;;117867;1182;24720;-57
2023/02/17 04:47:35;;;;;;;;;21.50;19.75;;;;;;;;117974;1186;25311;-58
2023/02/17 04:50:06;;;;;;;;;17.00;15.33;;;;;;;;118068;1189;25476;-58
2023/02/17 04:52:34;;;;;;;;;19.67;18.33;;;;;;;;118057;1182;25260;-57
2023/02/17 04:55:04;;;;;;;;;23.00;18.00;;;;;;;;117914;1185;25108;-60
2023/02/17 04:57:33;;;;;;;;;21.00;17.00;;;;;;;;117897;1190;25352;-56
2023/02/17 05:00:03;;;;;;;;;21.33;19.33;;;;;;;;118063;1178;25124;-57
2023/02/17 05:02:32;;;;;;;;;17.67;16.67;;;;;;;;118094;1177;25050;-57
2023/02/17 05:05:00;;;;;;;;;23.00;19.00;;;;;;;;118017;1178;25615;-57
2023/02/17 05:07:29;;;;;;;;;14.25;14.25;;;;;;;;117903;1180;25224;-58
2023/02/17 05:09:57;;;;;;;;;21.75;20.00;;;;;;;;117948;1190;25101;-57
2023/02/17 05:12:26;;;;;;;;;20.00;18.67;;;;;;;;118007;1190;25365;-57
2023/02/17 05:14:54;;;;;;;;;18.00;17.00;;;;;;;;118055;1177;24755;-57
2023/02/17 05:17:23;;;;;;;;;23.50;19.50;;;;;;;;118005;1177;25725;-57
2023/02/17 05:19:51;;;;;;;;;22.75;21.50;;;;;;;;117904;1181;24748;-57
2023/02/17 05:22:20;;;;;;;;;19.00;19.00;;;;;;;;117903;1177;25578;-57
2023/02/17 05:24:48;;;;;;;;;24.00;21.50;;;;;;;;117945;1180;25063;-57
2023/02/17 05:27:16;;;;;;;;;20.33;18.00;;;;;;;;117937;1187;25408;-57
2023/02/17 05:29:45;;;;;;;;;24.00;23.50;;;;;;;;117920;1190;25308;-57
2023/02/17 05:32:14;;;;;;;;;21.25;20.00;;;;;;;;118074;1177;25421;-57
2023/02/17 05:34:42;;;;;;;;;21.67;20.00;;;;;;;;118114;1184;25350;-57
2023/02/17 05:37:11;;;;;;;;;19.00;19.00;;;;;;;;118099;1176;25088;-57
2023/02/17 05:39:39;;;;;;;;;20.33;17.33;;;;;;;;117991;1176;25024;-57
2023/02/17 05:42:08;;;;;;;;;16.00;16.00;;;;;;;;117998;1190;25230;-57
2023/02/17 05:44:36;;;;;;;;;25.25;23.50;;;;;;;;118082;1176;25717;-57
2023/02/17 05:47:05;;;;;;;;;22.50;21.75;;;;;;;;118088;1183;25037;-57
2023/02/17 05:49:33;;;;;;;;;21.00;20.00;;;;;;;;117930;1187;25116;-57
2023/02/17 05:52:02;;;;;;;;;19.67;17.67;;;;;;;;118076;1177;25748;-57
2023/02/17 05:54:30;;;;;;;;;20.75;19.75;;;;;;;;117837;1178;24722;-58
2023/02/17 05:56:59;;;;;;;;;21.67;18.67;;;;;;;;117902;1190;24975;-58
2023/02/17 05:59:27;;;;;;;;;22.00;20.00;;;;;;;;117862;1178;24890;-58
2023/02/17 06:01:56;;;;;;;;;24.67;22.00;;;;;;;;117910;1177;25460;-57
2023/02/17 06:04:24;;;;;;;;;24.33;21.67;;;;;;;;118036;1177;25468;-58
2023/02/17 06:06:53;;;;;;;;;24.67;21.67;;;;;;;;117905;1178;25269;-57
2023/02/17 06:09:21;;;;;;;;;28.50;25.50;;;;;;;;117935;1183;25344;-58
2023/02/17 06:11:49;;;;;;;;;30.50;23.75;;;;;;;;118058;1190;24762;-58
2023/02/17 06:14:18;;;;;;;;;31.33;27.33;;;;;;;;118050;1177;24899;-58
2023/02/17 06:16:46;;;;;;;;;23.67;21.00;;;;;;;;118059;1176;25613;-57
2023/02/17 06:19:15;;;;;;;;;17.33;17.33;;;;;;;;118087;1177;25945;-57
2023/02/17 06:21:43;;;;;;;;;15.50;15.50;;;;;;;;118077;1187;25595;-57
2023/02/17 06:24:12;;;;;;;;;26.67;23.00;;;;;;;;117877;1177;24776;-57
2023/02/17 06:26:40;;;;;;;;;22.50;21.00;;;;;;;;117940;1177;24854;-57
2023/02/17 06:29:09;;;;;;;;;21.25;20.25;;;;;;;;118066;1178;25568;-57
2023/02/17 06:31:37;;;;;;;;;20.00;19.33;;;;;;;;117992;1190;24982;-57
2023/02/17 06:34:06;;;;;;;;;27.00;21.33;;;;;;;;118062;1177;24707;-57
2023/02/17 06:36:34;;;;;;;;;21.67;18.67;;;;;;;;117918;1187;25707;-57
2023/02/17 06:39:03;;;;;;;;;23.67;21.00;;;;;;;;117938;1177;25185;-59
2023/02/17 06:41:32;;;;;;;;;39.00;33.67;;;;;;;;117880;1188;25453;-58
2023/02/17 06:44:00;;;;;;;;;54.33;44.67;;;;;;;;117903;1184;25058;-58
2023/02/17 06:46:29;;;;;;;;;50.00;39.50;;;;;;;;117922;1183;25249;-60
2023/02/17 06:48:58;;;;;;;;;47.33;39.00;;;;;;;;117974;1177;25179;-59
2023/02/17 06:51:27;;;;;;;;;43.00;32.67;;;;;;;;118015;1190;24857;-59
2023/02/17 06:53:56;;;;;;;;;39.00;34.00;;;;;;;;118162;1177;25078;-61
2023/02/17 06:56:24;;;;;;;;;36.00;29.50;;;;;;;;118034;1190;24736;-59
2023/02/17 06:58:53;;;;;;;;;30.00;29.33;;;;;;;;117825;1177;25234;-60
2023/02/17 07:01:25;;;;;;;;;35.67;32.00;;;;;;;;117805;1187;26123;-60
2023/02/17 07:03:54;;;;;;;;;35.67;32.00;;;;;;;;118117;1178;25357;-58
2023/02/17 07:06:24;;;;;;;;;39.67;33.33;;;;;;;;118036;1190;25589;-59
2023/02/17 07:08:53;;;;;;;;;38.67;32.00;;;;;;;;117880;1179;25115;-58
2023/02/17 07:11:21;;;;;;;;;40.33;34.33;;;;;;;;117916;1190;25399;-58
2023/02/17 07:13:50;;;;;;;;;33.67;30.33;;;;;;;;117790;1183;25981;-59
2023/02/17 07:16:18;;;;;;;;;34.00;30.00;;;;;;;;117913;1190;24918;-58
2023/02/17 07:18:47;;;;;;;;;31.00;28.00;;;;;;;;118027;1190;25493;-58
2023/02/17 07:21:15;;;;;;;;;37.50;30.75;;;;;;;;117882;1190;25385;-58
2023/02/17 07:23:44;;;;;;;;;38.00;32.00;;;;;;;;118116;1177;25329;-57
2023/02/17 07:26:13;;;;;;;;;34.33;29.33;;;;;;;;117876;1188;24731;-58
2023/02/17 07:28:41;;;;;;;;;26.00;24.33;;;;;;;;117978;1177;25539;-58
2023/02/17 07:31:13;;;;;;;;;29.67;28.67;;;;;;;;117814;1178;25004;-59
2023/02/17 07:33:42;;;;;;;;;31.00;30.00;;;;;;;;117877;1190;25403;-59
2023/02/17 07:36:12;;;;;;;;;25.00;25.00;;;;;;;;117872;1190;25739;-58
2023/02/17 07:38:41;;;;;;;;;36.00;30.00;;;;;;;;117862;1178;25130;-58
2023/02/17 07:41:15;;;;;;;;;34.50;32.50;;;;;;;;117900;1191;24924;-60
2023/02/17 07:43:44;;;;;;;;;26.67;24.00;;;;;;;;117877;1177;25610;-59
2023/02/17 07:46:13;;;;;;;;;30.00;28.33;;;;;;;;117883;1179;25682;-58
2023/02/17 07:48:42;;;;;;;;;36.50;30.50;;;;;;;;117909;1184;25408;-58
2023/02/17 07:51:16;;;;;;;;;31.00;29.00;;;;;;;;117872;1179;25599;-57
2023/02/17 07:53:45;;;;;;;;;34.67;30.00;;;;;;;;117883;1177;25255;-57
2023/02/17 07:56:15;;;;;;;;;33.00;30.00;;;;;;;;117793;1190;25627;-56
2023/02/17 07:58:44;;;;;;;;;29.50;27.50;;;;;;;;117764;1183;25039;-58
2023/02/17 08:01:18;;;;;;;;;36.67;32.67;;;;;;;;117859;1177;24801;-58
2023/02/17 08:03:48;;;;;;;;;40.00;32.00;;;;;;;;117835;1190;24824;-59
2023/02/17 08:06:19;;;;;;;;;32.00;29.33;;;;;;;;117888;1182;25273;-56
2023/02/17 08:14:26;;;;;;;;;39.33;32.33;;;;;;;;117780;1190;25049;-57
2023/02/17 08:16:54;;;;;;;;;30.67;30.00;;;;;;;;117864;1180;25483;-58
2023/02/17 08:19:24;;;;;;;;;27.67;25.67;;;;;;;;117901;1180;25304;-58
2023/02/17 08:21:57;;;;;;;;;33.00;31.00;;;;;;;;117914;1177;25130;-58
2023/02/17 08:24:26;;;;;;;;;32.33;28.00;;;;;;;;117923;1189;25311;-57
2023/02/17 08:26:54;;;;;;;;;33.00;30.00;;;;;;;;117851;1179;25680;-58
2023/02/17 08:29:23;;;;;;;;;36.00;31.00;;;;;;;;117866;1181;25579;-57
2023/02/17 08:31:52;;;;;;;;;34.00;30.33;;;;;;;;117875;1178;25588;-57
2023/02/17 08:34:20;;;;;;;;;35.00;32.00;;;;;;;;117834;1177;25322;-56
2023/02/17 08:36:49;;;;;;;;;35.00;29.50;;;;;;;;117914;1189;24700;-57
2023/02/17 08:39:18;;;;;;;;;31.00;28.50;;;;;;;;118042;1177;25301;-56
2023/02/17 08:41:47;;;;;;;;;40.67;33.67;;;;;;;;118059;1177;25541;-57
2023/02/17 08:44:17;;;;;;;;;33.00;30.00;;;;;;;;117923;1190;25249;-59
2023/02/17 08:46:47;;;;;;;;;39.00;33.00;;;;;;;;117869;1190;25655;-59
2023/02/17 08:49:20;;;;;;;;;33.00;30.00;;;;;;;;117900;1190;25661;-57
2023/02/17 08:51:49;;;;;;;;;37.00;32.00;;;;;;;;118093;1177;24890;-58
2023/02/17 08:54:17;;;;;;;;;32.00;30.00;;;;;;;;117879;1184;25484;-57
2023/02/17 08:56:46;;;;;;;;;39.33;32.67;;;;;;;;117852;1184;25366;-57
2023/02/17 08:59:15;;;;;;;;;37.00;32.00;;;;;;;;118000;1186;24963;-59
2023/02/17 09:01:43;;;;;;;;;36.67;32.00;;;;;;;;117933;1190;24917;-60
2023/02/17 09:04:14;;;;;;;;;21.33;21.33;;;;;;;;118083;1176;25551;-60
2023/02/17 09:06:46;;;;;;;;;41.67;32.00;;;;;;;;117862;1179;25618;-60
2023/02/17 09:09:16;;;;;;;;;40.50;33.00;;;;;;;;118070;1177;24965;-59
2023/02/17 09:11:44;;;;;;;;;34.00;30.00;;;;;;;;118105;1177;25569;-61
2023/02/17 09:14:13;;;;;;;;;36.00;29.00;;;;;;;;117859;1186;24951;-59
2023/02/17 09:16:42;;;;;;;;;35.50;30.00;;;;;;;;118053;1190;25310;-60
2023/02/17 09:19:10;;;;;;;;;35.00;30.00;;;;;;;;118103;1177;25234;-60
2023/02/17 09:21:39;;;;;;;;;35.00;31.00;;;;;;;;118011;1187;24737;-61
2023/02/17 09:24:07;;;;;;;;;34.33;31.00;;;;;;;;117982;1184;25357;-61
2023/02/17 09:26:36;;;;;;;;;36.67;30.67;;;;;;;;118080;1187;24696;-61
2023/02/17 09:29:05;;;;;;;;;37.67;31.00;;;;;;;;118167;1176;25324;-59
2023/02/17 09:31:35;;;;;;;;;37.00;32.33;;;;;;;;118102;1177;24767;-59
2023/02/17 09:34:04;;;;;;;;;35.50;28.50;;;;;;;;118012;1182;25330;-60
2023/02/17 09:36:40;;;;;;;;;32.67;29.00;;;;;;;;117943;1178;24822;-60
2023/02/17 09:39:08;;;;;;;;;30.00;28.00;;;;;;;;117852;1181;24708;-60
2023/02/17 09:41:46;;;;;;;;;36.00;30.50;;;;;;;;117886;1180;25148;-60
2023/02/17 09:44:30;;;;;;;;;36.50;31.50;;;;;;;;117889;1180;25186;-60
2023/02/17 09:47:06;;;;;;;;;35.33;27.67;;;;;;;;117873;1187;25617;-59
2023/02/17 09:49:53;;;;;;;;;40.00;31.33;;;;;;;;118076;1177;25452;-59
2023/02/17 09:52:55;;;;;;;;;41.67;31.67;;;;;;;;117894;1180;25160;-65
2023/02/17 09:55:36;;;;;;;;;31.67;29.67;;;;;;;;117866;1178;25640;-61
2023/02/17 09:58:20;;;;;;;;;36.00;29.00;;;;;;;;117944;1187;25655;-60
2023/02/17 10:00:55;;;;;;;;;29.33;26.00;;;;;;;;117969;1178;25077;-60
2023/02/17 10:03:32;;;;;;;;;32.67;30.00;;;;;;;;117895;1177;26230;-60
2023/02/17 10:06:20;;;;;;;;;38.67;32.33;;;;;;;;118122;1184;25182;-60
2023/02/17 10:09:07;;;;;;;;;42.00;36.00;;;;;;;;117703;1180;25451;-60
2023/02/17 10:11:41;;;;;;;;;46.00;38.00;;;;;;;;117931;1177;24721;-61
2023/02/17 10:14:20;;;;;;;;;50.33;41.67;;;;;;;;117912;1183;25673;-60
2023/02/17 10:16:55;;;;;;;;;42.67;37.33;;;;;;;;117900;1179;25609;-61
2023/02/17 10:19:38;;;;;;;;;45.50;38.00;;;;;;;;117977;1183;25482;-60
2023/02/17 10:22:13;;;;;;;;;50.67;42.33;;;;;;;;117888;1190;24685;-62
2023/02/17 10:24:42;;;;;;;;;47.00;39.00;;;;;;;;117976;1179;24817;-58
2023/02/17 10:27:14;;;;;;;;;51.00;36.33;;;;;;;;117938;1190;24967;-58
2023/02/17 10:30:19;;;;;;;;;54.00;43.00;;;;;;;;118089;1177;25443;-56
2023/02/17 10:33:01;;;;;;;;;52.50;43.00;;;;;;;;118075;1176;25658;-57
2023/02/17 10:35:54;;;;;;;;;52.00;40.00;;;;;;;;117900;1180;25480;-58
2023/02/17 10:38:35;;;;;;;;;35.00;29.00;;;;;;;;117908;1181;25217;-57
2023/02/17 10:41:05;;;;;;;;;51.00;40.00;;;;;;;;118105;1178;25617;-57
2023/02/17 10:43:34;;;;;;;;;49.67;39.00;;;;;;;;117917;1190;24679;-57
2023/02/17 10:46:06;;;;;;;;;53.33;36.67;;;;;;;;117913;1177;25216;-57
2023/02/17 10:48:43;;;;;;;;;47.50;38.00;;;;;;;;117917;1179;25576;-56
2023/02/17 10:51:18;;;;;;;;;41.00;33.33;;;;;;;;117868;1181;25402;-57
2023/02/17 10:54:06;;;;;;;;;48.00;37.50;;;;;;;;117883;1190;25384;-58
2023/02/17 10:56:39;;;;;;;;;49.50;39.50;;;;;;;;117886;1180;25522;-57
2023/02/17 10:59:20;;;;;;;;;51.33;38.00;;;;;;;;117793;1186;25574;-57
2023/02/17 11:01:49;;;;;;;;;45.67;37.33;;;;;;;;117893;1177;25202;-57
2023/02/17 11:04:17;;;;;;;;;46.67;38.00;;;;;;;;117813;1191;24993;-57
2023/02/17 11:06:51;;;;;;;;;47.33;38.33;;;;;;;;117882;1190;25109;-57
2023/02/17 11:09:27;;;;;;;;;43.67;37.33;;;;;;;;117967;1179;25513;-57
2023/02/17 11:12:12;;;;;;;;;37.00;33.50;;;;;;;;117894;1190;24878;-58
2023/02/17 11:14:48;;;;;;;;;47.00;37.50;;;;;;;;118093;1176;26234;-58
2023/02/17 11:17:23;;;;;;;;;47.00;37.00;;;;;;;;117879;1179;25442;-57
2023/02/17 11:20:03;;;;;;;;;46.50;36.50;;;;;;;;118005;1177;24757;-58
2023/02/17 11:22:39;;;;;;;;;42.67;35.00;;;;;;;;117823;1179;24674;-58
2023/02/17 11:25:25;;;;;;;;;44.50;37.00;;;;;;;;117968;1189;25464;-58
2023/02/17 11:27:57;;;;;;;;;46.00;37.50;;;;;;;;117956;1177;25141;-58
2023/02/17 11:30:27;;;;;;;;;38.50;33.00;;;;;;;;118116;1189;25467;-58
2023/02/17 11:32:56;;;;;;;;;43.00;36.00;;;;;;;;118214;1189;25748;-58
2023/02/17 11:35:31;;;;;;;;;46.33;36.00;;;;;;;;118261;1189;24964;-60
2023/02/17 11:38:01;;;;;;;;;45.50;34.50;;;;;;;;118331;1189;25492;-60
2023/02/17 11:40:31;;;;;;;;;47.67;36.33;;;;;;;;118085;1186;25030;-57
2023/02/17 11:43:01;;;;;;;;;43.50;36.00;;;;;;;;118001;1177;25428;-62
2023/02/17 11:46:11;;;;;;;;;43.00;34.00;;;;;;;;117768;1185;25114;-64
2023/02/17 11:49:24;;;;;;;;;52.67;39.33;;;;;;;;118043;1177;25367;-62
2023/02/17 11:52:23;;;;;;;;;62.00;48.00;;;;;;;;117867;1178;25239;-57
2023/02/17 11:55:30;;;;;;;;;60.67;48.00;;;;;;;;119040;1182;25594;-59
2023/02/17 11:58:12;;;;;;;;;52.50;41.00;;;;;;;;118109;1184;25335;-58
2023/02/17 12:01:22;;;;;;;;;46.67;36.33;;;;;;;;117931;1181;25261;-59
2023/02/17 12:04:21;;;;;;;;;49.67;39.33;;;;;;;;117930;1178;25657;-59
2023/02/17 12:07:18;;;;;;;;;48.00;38.00;;;;;;;;117940;1190;25686;-59
2023/02/17 12:09:58;;;;;;;;;49.33;38.00;;;;;;;;117960;1181;25197;-58
2023/02/17 12:12:34;;;;;;;;;51.00;41.00;;;;;;;;117846;1180;24844;-58
2023/02/17 12:15:24;;;;;;;;;48.33;39.00;;;;;;;;118145;1190;25328;-59
2023/02/17 12:18:34;;;;;;;;;43.33;37.67;;;;;;;;118131;1184;25041;-58
2023/02/17 12:21:37;;;;;;;;;51.33;38.67;;;;;;;;117796;1180;25216;-58
2023/02/17 12:24:29;;;;;;;;;51.00;39.00;;;;;;;;117582;1181;25101;-59
2023/02/17 12:27:07;;;;;;;;;49.00;40.00;;;;;;;;117874;1179;25414;-59
2023/02/17 12:30:00;;;;;;;;;52.00;41.00;;;;;;;;118090;1179;25025;-59
2023/02/17 12:32:53;;;;;;;;;51.00;40.00;;;;;;;;118061;1184;25654;-59
2023/02/17 12:35:25;;;;;;;;;45.00;32.67;;;;;;;;118104;1177;25266;-58
2023/02/17 12:37:58;;;;;;;;;42.67;36.00;;;;;;;;117909;1190;24681;-58
2023/02/17 12:40:37;;;;;;;;;49.00;37.33;;;;;;;;118079;1177;25357;-58
2023/02/17 12:43:12;;;;;;;;;49.00;39.33;;;;;;;;118081;1178;25537;-58
2023/02/17 12:45:43;;;;;;;;;49.00;39.33;;;;;;;;118116;1184;25208;-58
2023/02/17 12:48:25;;;;;;;;;50.00;38.67;;;;;;;;118125;1190;25145;-58
2023/02/17 12:51:15;;;;;;;;;48.33;37.33;;;;;;;;117913;1183;25116;-61
2023/02/17 12:53:50;;;;;;;;;48.50;38.00;;;;;;;;118107;1190;25681;-58
2023/02/17 12:56:24;;;;;;;;;46.00;37.00;;;;;;;;118181;1190;24753;-59
2023/02/17 12:58:56;;;;;;;;;40.33;35.00;;;;;;;;118051;1176;24893;-58
2023/02/17 13:01:28;;;;;;;;;50.67;37.67;;;;;;;;118096;1177;25014;-58
2023/02/17 13:04:00;;;;;;;;;44.50;34.50;;;;;;;;118095;1189;25696;-59
2023/02/17 13:06:36;;;;;;;;;43.33;36.33;;;;;;;;118087;1177;25575;-58
2023/02/17 13:09:33;;;;;;;;;39.00;35.00;;;;;;;;118072;1177;24727;-58
2023/02/17 13:12:21;;;;;;;;;47.50;36.50;;;;;;;;118100;1177;25788;-58
2023/02/17 13:15:01;;;;;;;;;50.00;37.33;;;;;;;;118162;1187;25291;-59
2023/02/17 13:17:33;;;;;;;;;44.00;34.00;;;;;;;;118117;1186;25283;-58
2023/02/17 13:20:23;;;;;;;;;50.67;39.33;;;;;;;;118098;1183;25556;-59
2023/02/17 13:23:04;;;;;;;;;47.00;37.50;;;;;;;;117925;1179;25025;-57
2023/02/17 13:25:34;;;;;;;;;45.00;36.50;;;;;;;;118112;1176;24811;-58
2023/02/17 13:28:32;;;;;;;;;39.50;35.00;;;;;;;;118121;1176;26404;-58
2023/02/17 13:31:17;;;;;;;;;47.33;37.00;;;;;;;;118150;1183;24987;-58
2023/02/17 13:33:54;;;;;;;;;40.33;32.00;;;;;;;;118110;1178;24736;-59
2023/02/17 13:36:32;;;;;;;;;42.00;37.00;;;;;;;;118086;1189;25334;-58
2023/02/17 13:39:25;;;;;;;;;39.50;34.50;;;;;;;;118089;1177;25415;-57
2023/02/17 13:41:59;;;;;;;;;33.33;31.67;;;;;;;;118119;1190;24909;-59
2023/02/17 13:44:39;;;;;;;;;38.50;34.00;;;;;;;;118113;1177;24667;-58
2023/02/17 13:47:18;;;;;;;;;43.67;34.33;;;;;;;;118075;1183;24904;-58
2023/02/17 13:49:55;;;;;;;;;39.67;32.33;;;;;;;;117892;1187;25042;-57
2023/02/17 13:52:29;;;;;;;;;44.00;35.67;;;;;;;;118112;1178;25360;-58
2023/02/17 13:55:04;;;;;;;;;39.00;33.50;;;;;;;;118108;1177;24772;-59
2023/02/17 13:57:35;;;;;;;;;38.00;33.50;;;;;;;;117914;1183;25489;-67
2023/02/17 14:00:04;;;;;;;;;49.00;37.67;;;;;;;;118141;1177;25695;-64
2023/02/17 14:02:37;;;;;;;;;39.00;32.00;;;;;;;;118167;1178;24993;-61
2023/02/17 14:05:36;;;;;;;;;46.33;34.67;;;;;;;;118132;1190;25362;-64
2023/02/17 14:08:13;;;;;;;;;44.50;36.50;;;;;;;;117974;1177;25242;-60
2023/02/17 14:10:42;;;;;;;;;40.00;34.67;;;;;;;;118173;1177;25050;-64
2023/02/17 14:13:11;;;;;;;;;41.67;35.00;;;;;;;;117866;1181;24856;-60
2023/02/17 14:15:51;;;;;;;;;41.00;34.33;;;;;;;;118117;1177;25389;-58
2023/02/17 14:18:43;;;;;;;;;40.33;35.00;;;;;;;;118143;1177;25601;-59
2023/02/17 14:21:24;;;;;;;;;43.00;36.00;;;;;;;;118101;1190;25635;-58
2023/02/17 14:23:54;;;;;;;;;38.33;32.00;;;;;;;;117934;1178;24716;-57
2023/02/17 14:26:26;;;;;;;;;43.67;32.67;;;;;;;;118134;1190;25627;-59
2023/02/17 14:28:57;;;;;;;;;36.50;32.00;;;;;;;;118106;1177;25461;-58
2023/02/17 14:31:26;;;;;;;;;38.50;30.50;;;;;;;;118113;1178;25013;-59
2023/02/17 14:34:01;;;;;;;;;38.50;33.00;;;;;;;;117959;1188;25156;-58
2023/02/17 14:36:37;;;;;;;;;36.50;32.50;;;;;;;;117968;1190;25158;-59
2023/02/17 14:39:08;;;;;;;;;37.33;33.67;;;;;;;;118151;1176;25162;-58
2023/02/17 14:41:36;;;;;;;;;41.00;33.50;;;;;;;;118108;1182;25315;-56
2023/02/17 14:44:06;;;;;;;;;43.50;34.50;;;;;;;;118134;1177;25244;-58